Time;durP1;ratioP1;P1;durP2;ratioP2;P2;SDS_P1;SDS_P2;PMS_P1;PMS_P2;Temp;Humidity;BMP_temperature;BMP_pressure;BME280_temperature;BME280_humidity;BME280_pressure;Samples;Min_cycle;Max_cycle;Signal;HPM_P1;HPM_P2
2022/06/19 00:01:45;;;;;;;8.65;3.10;;;21.60;82.10;;;21.68;62.63;96773.81;4980871;28;20035;-42
2022/06/19 00:04:12;;;;;;;9.20;2.60;;;21.60;82.00;;;21.70;61.34;96777.19;4977556;28;20478;-41
2022/06/19 00:06:39;;;;;;;9.90;2.78;;;21.60;81.40;;;21.72;61.41;96762.63;4979347;28;20026;-41
2022/06/19 00:09:06;;;;;;;10.50;2.92;;;21.60;81.20;;;21.77;60.89;96754.19;4975068;28;20478;-43
2022/06/19 00:11:33;;;;;;;7.57;2.80;;;21.60;81.00;;;21.67;61.32;96748.78;4982162;28;20030;-42
2022/06/19 00:14:00;;;;;;;5.40;2.72;;;21.60;81.40;;;21.66;61.73;96743.56;4976130;28;20479;-41
2022/06/19 00:16:26;;;;;;;9.85;2.78;;;21.60;81.60;;;21.66;62.73;96751.63;4978832;28;20034;-43
2022/06/19 00:18:52;;;;;;;5.95;2.50;;;21.50;82.10;;;21.62;63.06;96755.56;4978391;28;20518;-42
2022/06/19 00:21:18;;;;;;;8.27;2.60;;;21.50;82.30;;;21.54;62.72;96735.66;4976141;28;20038;-43
2022/06/19 00:23:45;;;;;;;8.20;2.78;;;21.40;82.10;;;21.58;62.48;96743.44;4974965;28;20164;-44
2022/06/19 00:26:13;;;;;;;9.45;3.28;;;21.40;82.30;;;21.54;63.18;96745.56;4979439;28;20037;-41
2022/06/19 00:28:40;;;;;;;7.60;2.60;;;21.40;82.70;;;21.48;63.15;96733.56;4983483;28;20034;-42
2022/06/19 00:31:09;;;;;;;6.80;3.08;;;21.40;82.60;;;21.51;61.98;96738.63;4974781;28;20042;-42
2022/06/19 00:33:35;;;;;;;8.00;2.83;;;21.40;82.00;;;21.49;61.87;96726.34;4977624;28;20402;-43
2022/06/19 00:36:01;;;;;;;10.50;3.20;;;21.40;82.00;;;21.50;62.81;96725.38;4981793;28;20039;-42
2022/06/19 00:38:26;;;;;;;7.57;2.72;;;21.40;82.60;;;21.46;62.75;96730.19;4983351;28;20177;-42
2022/06/19 00:40:57;;;;;;;7.40;3.15;;;21.40;82.80;;;21.46;62.14;96735.53;4979761;28;20042;-41
2022/06/19 00:43:23;;;;;;;4.93;2.42;;;21.40;82.20;;;21.47;62.29;96731.84;4976471;28;20109;-41
2022/06/19 00:45:50;;;;;;;8.60;3.08;;;21.40;82.30;;;21.48;61.27;96721.97;4981178;28;20034;-42
2022/06/19 00:48:20;;;;;;;13.05;3.00;;;21.40;81.60;;;21.50;61.88;96726.22;4974594;28;20026;-42
2022/06/19 00:50:48;;;;;;;6.75;2.55;;;21.40;81.90;;;21.47;62.31;96718.44;4981582;28;20499;-42
2022/06/19 00:53:24;;;;;;;6.32;2.40;;;21.40;82.20;;;21.44;62.10;96720.53;4974816;28;20030;-43
2022/06/19 00:55:51;;;;;;;10.05;2.50;;;21.30;82.50;;;21.37;62.71;96709.50;4977640;28;20041;-41
2022/06/19 00:58:28;;;;;;;6.85;2.55;;;21.30;82.60;;;21.33;62.62;96710.78;4974672;28;20444;-45
2022/06/19 01:00:58;;;;;;;5.15;2.15;;;21.20;82.60;;;21.25;62.36;96690.03;4978800;28;20419;-43
2022/06/19 01:03:36;;;;;;;6.75;2.55;;;21.20;82.70;;;21.32;62.42;96701.91;4981887;28;20030;-41
2022/06/19 01:06:02;;;;;;;8.13;2.78;;;21.20;82.60;;;21.32;61.73;96693.84;4986309;28;20306;-41
2022/06/19 01:08:27;;;;;;;9.02;3.05;;;21.20;82.10;;;21.32;61.67;96696.53;4981785;28;20423;-42
2022/06/19 01:10:53;;;;;;;7.35;2.60;;;21.20;82.30;;;21.32;61.93;96699.22;4977411;28;20695;-42
2022/06/19 01:13:23;;;;;;;6.47;2.90;;;21.20;82.10;;;21.26;61.30;96682.84;4976848;28;20073;-44
2022/06/19 01:15:50;;;;;;;9.73;3.03;;;21.20;82.00;;;21.28;62.05;96694.28;4980945;28;20080;-42
2022/06/19 01:18:17;;;;;;;10.77;2.60;;;21.20;82.40;;;21.22;61.61;96684.97;4980861;28;20058;-41
2022/06/19 01:20:43;;;;;;;9.68;2.63;;;21.20;82.30;;;21.20;61.59;96680.72;4987341;28;20026;-41
2022/06/19 01:23:27;;;;;;;10.18;2.83;;;21.10;82.20;;;21.16;62.91;96689.03;4974130;28;20049;-41
2022/06/19 01:25:53;;;;;;;8.43;2.33;;;21.10;82.90;;;21.10;62.88;96686.06;4974713;28;20081;-41
2022/06/19 01:28:45;;;;;;;7.88;2.58;;;21.00;82.50;;;21.04;63.04;96673.25;4980648;28;20042;-41
2022/06/19 01:31:16;;;;;;;9.85;2.85;;;20.90;83.20;;;21.00;63.05;96672.66;4978716;28;20061;-42
2022/06/19 01:33:51;;;;;;;6.15;2.40;;;20.90;83.10;;;20.96;63.60;96671.22;4977906;28;20034;-41
2022/06/19 01:36:21;;;;;;;7.75;2.25;;;20.90;83.40;;;20.95;64.29;96667.72;4975681;28;20211;-45
2022/06/19 01:38:51;;;;;;;8.30;2.45;;;20.90;84.00;;;20.92;64.43;96657.25;4972839;28;20042;-46
2022/06/19 01:41:26;;;;;;;9.02;3.03;;;20.80;84.00;;;20.89;63.90;96654.88;4977857;28;20056;-42
2022/06/19 01:43:52;;;;;;;7.45;2.92;;;20.80;84.00;;;20.83;64.89;96655.44;4973519;28;20470;-41
2022/06/19 01:46:18;;;;;;;8.57;3.00;;;20.80;84.70;;;20.74;65.62;96649.06;4980250;28;20057;-41
2022/06/19 01:48:45;;;;;;;7.00;2.60;;;20.70;85.10;;;20.72;66.04;96644.84;4979216;28;20053;-41
2022/06/19 01:51:10;;;;;;;8.20;2.95;;;20.70;85.50;;;20.65;66.77;96635.66;4976139;28;20042;-41
2022/06/19 01:53:58;;;;;;;8.93;3.20;;;20.60;85.80;;;20.63;66.46;96640.31;4979940;28;20085;-41
2022/06/19 01:56:25;;;;;;;9.15;3.13;;;20.60;85.60;;;20.57;66.29;96642.53;4975993;28;20092;-42
2022/06/19 01:58:53;;;;;;;6.82;2.80;;;20.50;85.80;;;20.55;66.63;96649.00;4979264;28;20056;-41
2022/06/19 02:01:20;;;;;;;14.15;3.20;;;20.50;86.10;;;20.49;66.89;96637.00;4979416;28;20192;-42
2022/06/19 02:03:55;;;;;;;10.32;2.78;;;20.40;86.10;;;20.51;67.01;96650.25;4977834;28;20387;-41
2022/06/19 02:06:38;;;;;;;10.20;3.00;;;20.40;86.10;;;20.49;66.11;96650.38;4979082;28;20506;-41
2022/06/19 02:09:06;;;;;;;6.57;2.58;;;20.40;85.80;;;20.49;67.05;96646.88;4975239;28;20065;-41
2022/06/19 02:11:34;;;;;;;9.45;2.55;;;20.40;86.20;;;20.41;66.87;96643.03;4978950;28;21103;-44
2022/06/19 02:14:03;;;;;;;4.47;2.58;;;20.40;86.30;;;20.45;66.48;96651.66;4977413;28;20069;-41
2022/06/19 02:16:29;;;;;;;11.15;2.95;;;20.40;86.90;;;20.47;66.40;96648.84;4978365;28;20026;-43
2022/06/19 02:18:55;;;;;;;9.60;2.90;;;20.40;86.00;;;20.47;66.28;96646.16;4980514;28;20082;-42
2022/06/19 02:21:42;;;;;;;7.30;2.92;;;20.40;85.90;;;20.46;66.58;96653.34;4980914;28;20454;-43
2022/06/19 02:24:12;;;;;;;8.88;2.55;;;20.40;86.10;;;20.44;66.55;96651.78;4974062;28;20038;-42
2022/06/19 02:26:40;;;;;;;9.35;2.42;;;20.40;86.10;;;20.36;65.73;96637.25;4978584;28;20140;-41
2022/06/19 02:29:09;;;;;;;10.23;2.95;;;20.40;85.80;;;20.44;65.77;96649.97;4971051;28;20113;-43
2022/06/19 02:31:39;;;;;;;9.13;3.00;;;20.40;85.70;;;20.45;65.10;96656.16;4970958;28;20045;-45
2022/06/19 02:34:36;;;;;;;8.93;3.13;;;20.40;86.20;;;20.47;64.76;96654.19;4973914;28;20030;-43
2022/06/19 02:37:21;;;;;;;6.65;2.33;;;20.40;85.20;;;20.50;63.64;96654.78;4976797;28;20536;-44
2022/06/19 02:40:10;;;;;;;7.60;2.60;;;20.40;84.30;;;20.51;63.45;96652.94;4977319;28;20030;-41
2022/06/19 02:42:43;;;;;;;8.57;2.75;;;20.50;84.20;;;20.53;64.09;96643.78;4974402;28;20042;-43
2022/06/19 02:45:27;;;;;;;7.50;2.47;;;20.50;84.80;;;20.50;64.76;96643.22;4976554;28;20497;-41
2022/06/19 02:47:56;;;;;;;8.60;2.58;;;20.40;84.90;;;20.47;64.57;96643.47;4978896;28;20038;-44
2022/06/19 02:50:42;;;;;;;7.90;2.88;;;20.40;84.70;;;20.48;63.08;96651.38;4977485;28;20057;-43
2022/06/19 02:53:07;;;;;;;9.48;2.80;;;20.40;84.00;;;20.60;60.31;96654.78;4975901;28;20027;-44
2022/06/19 02:55:33;;;;;;;8.07;2.17;;;20.50;82.30;;;20.68;60.54;96646.94;4974912;28;20034;-42
2022/06/19 02:57:59;;;;;;;6.78;2.53;;;20.60;82.30;;;20.71;60.92;96638.63;4982171;28;20394;-42
2022/06/19 03:00:27;;;;;;;7.47;2.38;;;20.70;82.40;;;20.71;61.66;96644.00;4980613;28;20390;-44
2022/06/19 03:02:58;;;;;;;5.57;2.42;;;20.70;82.90;;;20.68;61.81;96641.59;4980357;28;20022;-42
2022/06/19 03:05:28;;;;;;;6.15;2.30;;;20.70;83.10;;;20.65;62.17;96633.81;4990977;28;20030;-43
2022/06/19 03:07:54;;;;;;;5.63;2.03;;;20.60;83.30;;;20.59;61.89;96635.19;4978451;28;20588;-44
2022/06/19 03:10:20;;;;;;;10.85;2.75;;;20.60;83.10;;;20.59;62.30;96627.16;4985437;28;20038;-45
2022/06/19 03:12:46;;;;;;;9.82;2.55;;;20.60;83.30;;;20.55;62.80;96630.25;4981382;28;20038;-46
2022/06/19 03:15:17;;;;;;;8.77;2.58;;;20.50;83.60;;;20.54;62.96;96631.22;4978763;28;20035;-44
2022/06/19 03:17:43;;;;;;;7.93;2.40;;;20.50;83.80;;;20.49;63.69;96628.94;4975487;28;20026;-44
2022/06/19 03:20:14;;;;;;;7.07;2.45;;;20.40;84.50;;;20.44;64.62;96619.63;4980666;28;20096;-45
2022/06/19 03:22:40;;;;;;;9.67;2.77;;;20.40;85.10;;;20.39;64.37;96623.59;4985243;28;20023;-43
2022/06/19 03:25:06;;;;;;;5.07;2.00;;;20.30;84.80;;;20.35;64.67;96616.81;4974185;28;20461;-42
2022/06/19 03:27:31;;;;;;;4.35;2.22;;;20.30;85.20;;;20.32;64.83;96619.75;4977317;28;20053;-44
2022/06/19 03:29:57;;;;;;;7.28;2.38;;;20.30;85.40;;;20.29;66.37;96612.00;4981612;28;20030;-45
2022/06/19 03:32:23;;;;;;;6.50;2.58;;;20.20;86.20;;;20.27;66.50;96618.47;4978922;28;20023;-44
2022/06/19 03:34:48;;;;;;;9.27;2.78;;;20.20;86.50;;;20.26;66.64;96617.66;4980019;28;20033;-44
2022/06/19 03:37:14;;;;;;;10.50;3.03;;;20.20;86.40;;;20.21;67.72;96604.66;4978429;28;20062;-43
2022/06/19 03:42:11;;;;;;;11.27;2.85;;;20.20;87.30;;;20.23;68.12;96612.56;5029600;28;20053;-38
2022/06/19 03:44:37;;;;;;;10.73;2.58;;;20.20;87.70;;;20.24;68.46;96616.06;5026951;28;20076;-39
2022/06/19 03:47:05;;;;;;;6.45;2.47;;;20.20;87.80;;;20.24;68.37;96608.88;5032004;28;20562;-39
2022/06/19 03:49:31;;;;;;;7.45;2.63;;;20.20;87.90;;;20.27;68.07;96605.94;5041588;28;20021;-39
2022/06/19 03:51:56;;;;;;;8.70;2.30;;;20.20;87.70;;;20.21;67.82;96593.09;5015414;28;20033;-39
2022/06/19 03:54:22;;;;;;;10.02;2.58;;;20.20;87.60;;;20.30;68.04;96605.66;5016991;28;20455;-39
2022/06/19 03:56:48;;;;;;;7.95;2.65;;;20.30;87.90;;;20.33;68.30;96601.84;5018241;28;20034;-39
2022/06/19 03:59:14;;;;;;;6.75;2.33;;;20.30;88.00;;;20.34;68.08;96604.41;5014964;28;20042;-39
2022/06/19 04:01:40;;;;;;;8.88;2.25;;;20.30;87.80;;;20.39;67.90;96607.53;5022642;28;20037;-41
2022/06/19 04:04:07;;;;;;;11.65;2.95;;;20.30;87.80;;;20.48;66.91;96613.88;5021189;28;20029;-42
2022/06/19 04:06:37;;;;;;;10.30;3.00;;;20.40;87.30;;;20.55;66.69;96603.47;5021866;28;20033;-42
2022/06/19 04:09:05;;;;;;;8.88;2.28;;;20.50;87.10;;;20.62;66.96;96601.97;5015906;28;20631;-42
2022/06/19 04:11:32;;;;;;;7.38;2.80;;;20.60;87.10;;;20.63;67.28;96598.28;5023120;28;20087;-41
2022/06/19 04:13:58;;;;;;;6.65;2.10;;;20.60;87.50;;;20.71;67.77;96600.25;5022698;28;20053;-42
2022/06/19 04:16:30;;;;;;;6.22;2.38;;;20.70;87.80;;;20.76;67.88;96606.94;5017321;28;20029;-42
2022/06/19 04:18:59;;;;;;;13.50;3.03;;;20.70;87.80;;;20.81;67.82;96605.66;5024499;28;20040;-42
2022/06/19 04:21:29;;;;;;;9.20;2.88;;;20.70;87.90;;;20.88;67.56;96609.47;5024633;28;20025;-42
2022/06/19 04:23:58;;;;;;;9.23;2.92;;;20.80;87.90;;;20.92;67.63;96610.88;5022814;28;20294;-42
2022/06/19 04:26:28;;;;;;;9.07;2.80;;;20.80;87.80;;;20.98;66.40;96603.13;5021280;28;20112;-41
2022/06/19 04:28:56;;;;;;;6.22;2.47;;;20.90;87.00;;;21.12;65.75;96609.91;5022708;28;20032;-42
2022/06/19 04:31:21;;;;;;;6.55;2.60;;;21.00;86.60;;;21.17;65.27;96604.97;5018599;28;20605;-42
2022/06/19 04:33:47;;;;;;;6.63;2.30;;;21.10;86.30;;;21.23;64.52;96590.13;5024147;28;20034;-42
2022/06/19 04:36:18;;;;;;;9.80;2.58;;;21.30;85.90;;;21.43;64.36;96614.25;5022213;28;20040;-42
2022/06/19 04:38:46;;;;;;;9.85;2.42;;;21.30;85.70;;;21.51;64.72;96614.38;5023970;28;20435;-42
2022/06/19 04:41:15;;;;;;;8.60;2.92;;;21.40;85.90;;;21.48;64.45;96595.91;5023765;28;20032;-42
2022/06/19 04:43:41;;;;;;;9.85;2.83;;;21.50;85.90;;;21.67;64.11;96620.00;5025200;28;20029;-42
2022/06/19 04:46:07;;;;;;;9.38;2.50;;;21.60;85.40;;;21.78;62.60;96624.34;5022701;28;20380;-42
2022/06/19 04:48:34;;;;;;;9.45;2.88;;;21.70;84.60;;;21.86;62.89;96612.91;5024132;28;20037;-42
2022/06/19 04:51:00;;;;;;;10.02;2.60;;;21.80;84.70;;;21.99;62.83;96623.31;5022997;28;20021;-42
2022/06/19 04:53:26;;;;;;;8.60;3.10;;;21.90;84.70;;;22.03;63.30;96609.44;5026485;28;20037;-43
2022/06/19 04:55:52;;;;;;;9.55;2.70;;;21.90;84.80;;;22.16;63.32;96616.31;5025604;28;20029;-40
2022/06/19 04:58:22;;;;;;;6.40;2.17;;;22.00;84.90;;;22.36;62.56;96620.66;5026498;28;20140;-40
2022/06/19 05:00:51;;;;;;;7.28;2.40;;;22.20;84.70;;;22.72;61.13;96619.84;5023647;28;20044;-39
2022/06/19 05:03:19;;;;;;;6.55;2.58;;;22.40;85.20;;;23.19;59.58;96617.00;5026743;28;20100;-43
2022/06/19 05:05:46;;;;;;;7.45;2.83;;;22.60;83.40;;;23.69;56.85;96608.31;5025479;28;20025;-41
2022/06/19 05:08:12;;;;;;;10.82;2.90;;;23.00;82.10;;;24.21;54.38;96615.53;5017029;28;20041;-40
2022/06/19 05:10:39;;;;;;;5.63;2.75;;;23.40;80.80;;;24.82;51.83;96624.38;5026114;28;20033;-42
2022/06/19 05:13:06;;;;;;;10.55;3.03;;;23.80;78.80;;;25.33;50.14;96614.34;5026798;28;20144;-40
2022/06/19 05:15:35;;;;;;;4.90;2.63;;;24.20;77.60;;;26.17;48.19;96624.91;5024501;28;20148;-40
2022/06/19 05:18:01;;;;;;;11.70;2.80;;;24.80;76.40;;;26.94;46.42;96636.94;5020845;28;20063;-41
2022/06/19 05:20:27;;;;;;;6.03;2.35;;;25.30;75.80;;;27.49;45.27;96630.47;5026360;28;20038;-40
2022/06/19 05:22:53;;;;;;;12.55;3.15;;;25.80;73.90;;;27.99;44.01;96631.72;5022459;28;20035;-40
2022/06/19 05:25:20;;;;;;;10.07;4.00;;;26.30;72.10;;;28.53;42.23;96629.78;5022495;28;20084;-41
2022/06/19 05:27:45;;;;;;;7.05;3.05;;;26.70;70.40;;;29.01;41.17;96622.03;5020752;28;20036;-40
2022/06/19 05:30:13;;;;;;;9.15;3.00;;;27.20;69.10;;;29.40;40.10;96630.84;5023526;28;20033;-40
2022/06/19 05:32:40;;;;;;;6.78;3.03;;;27.50;67.50;;;29.39;39.69;96624.56;5026629;28;20029;-40
2022/06/19 05:35:07;;;;;;;6.85;3.38;;;27.70;66.20;;;29.21;40.27;96635.03;5025248;28;20038;-40
2022/06/19 05:37:32;;;;;;;10.10;3.13;;;27.80;65.80;;;28.74;40.26;96632.59;5019870;28;20029;-41
2022/06/19 05:39:58;;;;;;;10.90;2.83;;;27.60;65.80;;;28.18;41.30;96614.09;5026370;28;20063;-41
2022/06/19 05:42:26;;;;;;;8.40;2.90;;;27.40;66.40;;;27.85;42.62;96631.69;5022476;28;20026;-40
2022/06/19 05:44:52;;;;;;;5.07;2.50;;;27.20;67.30;;;27.48;43.97;96631.50;5021948;28;20037;-41
2022/06/19 05:47:18;;;;;;;17.17;3.40;;;26.90;68.10;;;27.20;43.60;96632.00;5024824;28;20079;-40
2022/06/19 05:49:43;;;;;;;8.43;2.40;;;26.70;68.30;;;27.04;44.78;96632.13;5022415;28;20033;-40
2022/06/19 05:52:16;;;;;;;12.27;2.80;;;26.70;68.80;;;26.86;44.67;96632.41;5017369;28;20044;-41
2022/06/19 05:54:43;;;;;;;9.20;3.13;;;26.50;68.80;;;26.74;45.45;96631.09;5023041;28;20038;-42
2022/06/19 05:57:08;;;;;;;8.32;2.78;;;26.40;69.30;;;26.65;45.88;96633.03;5022127;28;20044;-40
2022/06/19 05:59:34;;;;;;;10.50;2.75;;;26.30;70.00;;;26.59;45.72;96628.28;5025672;28;20033;-41
2022/06/19 06:02:00;;;;;;;5.60;2.78;;;26.30;69.70;;;26.58;46.01;96629.31;5016809;28;20490;-40
2022/06/19 06:04:26;;;;;;;12.18;2.83;;;26.30;69.80;;;26.60;44.82;96630.81;5022253;28;20055;-40
2022/06/19 06:06:52;;;;;;;9.98;3.30;;;26.30;68.80;;;26.66;45.51;96626.59;5022433;28;20109;-41
2022/06/19 06:09:18;;;;;;;7.53;3.03;;;26.30;69.20;;;26.69;46.24;96620.84;5022767;28;20284;-40
2022/06/19 06:11:44;;;;;;;9.55;2.88;;;26.30;70.40;;;26.59;46.33;96593.97;5023059;28;20029;-40
2022/06/19 06:14:10;;;;;;;12.18;2.95;;;26.40;70.40;;;26.79;46.59;96623.31;5025618;28;20044;-40
2022/06/19 06:16:35;;;;;;;10.13;2.53;;;26.50;70.60;;;26.87;46.27;96628.69;5020288;28;20041;-40
2022/06/19 06:19:01;;;;;;;12.50;3.38;;;26.60;70.30;;;26.92;45.91;96625.44;5018741;28;20089;-40
2022/06/19 06:21:27;;;;;;;8.90;3.35;;;26.60;70.00;;;27.01;45.25;96635.22;5024747;28;20071;-41
2022/06/19 06:23:54;;;;;;;7.18;3.53;;;26.70;69.40;;;27.07;45.02;96628.22;5022348;28;20092;-40
2022/06/19 06:26:27;;;;;;;8.25;3.10;;;26.70;69.00;;;27.16;45.16;96629.84;5022841;28;20025;-41
2022/06/19 06:28:55;;;;;;;8.68;2.63;;;26.80;69.10;;;27.23;44.92;96626.25;5024909;28;20148;-40
2022/06/19 06:31:22;;;;;;;9.48;3.42;;;26.90;69.10;;;27.34;44.85;96626.88;5023220;28;20047;-40
2022/06/19 06:33:48;;;;;;;9.50;3.05;;;27.00;68.90;;;27.45;44.36;96622.91;5025168;28;20036;-40
2022/06/19 06:36:14;;;;;;;18.33;3.47;;;27.20;68.40;;;27.55;44.08;96616.22;5023234;28;20033;-41
2022/06/19 06:38:40;;;;;;;5.97;2.95;;;27.30;68.10;;;27.66;43.60;96617.66;5021573;28;20048;-41
2022/06/19 06:41:09;;;;;;;11.60;3.45;;;27.40;67.50;;;27.76;43.98;96617.38;5024034;28;20425;-41
2022/06/19 06:43:36;;;;;;;11.85;3.78;;;27.50;67.50;;;27.89;43.91;96631.16;5024451;28;20072;-40
2022/06/19 06:46:15;;;;;;;11.68;3.33;;;27.60;67.10;;;28.02;43.38;96638.66;5019448;28;20033;-42
2022/06/19 06:48:42;;;;;;;10.23;3.85;;;27.70;66.70;;;28.08;43.00;96634.38;5017246;28;20438;-41
2022/06/19 06:51:13;;;;;;;8.88;3.30;;;27.80;66.60;;;28.04;43.20;96635.78;5018444;28;20252;-41
2022/06/19 06:53:39;;;;;;;9.40;2.83;;;27.80;67.50;;;27.82;43.48;96616.66;5014273;28;20041;-41
2022/06/19 06:56:06;;;;;;;8.35;3.13;;;27.70;66.80;;;27.90;43.62;96629.28;5018546;28;20107;-41
2022/06/19 06:58:32;;;;;;;7.63;2.90;;;27.60;67.10;;;27.85;44.28;96629.81;5021603;28;20071;-40
2022/06/19 07:01:08;;;;;;;7.68;2.60;;;27.60;67.80;;;27.93;45.17;96629.78;5022698;28;20025;-40
2022/06/19 07:03:34;;;;;;;7.45;3.10;;;27.70;68.70;;;28.18;44.88;96637.66;5019176;28;20064;-40
2022/06/19 07:06:00;;;;;;;6.13;2.70;;;28.00;68.80;;;28.41;44.80;96631.28;5020916;28;20040;-40
2022/06/19 07:08:26;;;;;;;7.78;2.83;;;28.20;68.60;;;28.51;44.13;96629.13;5018614;28;20025;-40
2022/06/19 07:10:52;;;;;;;8.13;2.90;;;28.30;67.60;;;28.54;43.83;96624.19;5021717;28;20450;-40
2022/06/19 07:13:18;;;;;;;8.20;3.20;;;28.30;67.30;;;28.55;43.66;96633.19;5023340;28;20040;-41
2022/06/19 07:15:44;;;;;;;8.52;3.38;;;28.40;66.50;;;28.61;44.39;96632.44;5022924;28;20033;-40
2022/06/19 07:18:11;;;;;;;16.30;3.92;;;28.40;67.00;;;28.67;45.53;96637.09;5021702;28;20502;-41
2022/06/19 07:20:37;;;;;;;7.28;3.15;;;28.50;68.90;;;28.68;44.58;96618.97;5017991;28;20033;-41
2022/06/19 07:23:05;;;;;;;6.22;2.65;;;28.50;67.80;;;28.66;44.53;96627.28;5012714;28;20029;-40
2022/06/19 07:25:31;;;;;;;11.57;3.40;;;28.50;68.40;;;28.54;45.25;96626.09;5017248;28;20179;-40
2022/06/19 07:27:59;;;;;;;9.43;3.55;;;28.30;68.50;;;28.49;44.61;96633.91;5020840;28;20065;-40
2022/06/19 07:30:26;;;;;;;10.80;3.70;;;28.20;68.50;;;28.61;44.79;96618.88;5021093;28;20477;-40
2022/06/19 07:32:54;;;;;;;13.63;4.07;;;28.40;68.30;;;28.77;44.17;96619.66;5018588;28;20056;-41
2022/06/19 07:35:20;;;;;;;11.57;3.88;;;28.50;67.80;;;28.93;43.82;96619.47;5018320;28;20029;-40
2022/06/19 07:37:46;;;;;;;11.75;4.05;;;28.70;67.10;;;29.16;42.22;96623.91;5022520;28;20052;-40
2022/06/19 07:40:15;;;;;;;14.35;4.28;;;28.90;66.00;;;29.37;41.76;96626.63;5020779;28;20784;-41
2022/06/19 07:42:42;;;;;;;10.20;4.55;;;29.10;65.30;;;29.48;41.70;96633.41;5009350;28;20401;-38
2022/06/19 07:45:09;;;;;;;20.73;4.97;;;29.20;65.20;;;29.59;43.09;96626.63;5005535;28;20037;-41
2022/06/19 07:50:20;;;;;;;14.43;4.55;;;29.50;64.60;;;29.84;42.71;96621.63;5010937;28;20037;-40
2022/06/19 07:52:49;;;;;;;21.05;4.75;;;29.60;65.30;;;29.98;42.25;96625.28;5015864;28;20040;-40
2022/06/19 07:55:23;;;;;;;8.48;3.63;;;29.70;65.90;;;30.11;41.68;96622.66;5020161;28;20028;-41
2022/06/19 07:57:49;;;;;;;16.30;4.80;;;29.80;64.80;;;30.18;41.64;96612.66;5013570;28;20022;-42
2022/06/19 08:00:25;;;;;;;16.38;4.70;;;30.00;64.70;;;30.30;40.78;96617.56;5020552;28;20040;-42
2022/06/19 08:02:53;;;;;;;14.60;4.35;;;30.10;63.90;;;30.35;41.50;96615.94;5018175;28;20037;-41
2022/06/19 08:05:21;;;;;;;15.80;4.28;;;30.10;64.40;;;30.34;41.18;96600.66;5017293;28;20727;-41
2022/06/19 08:07:48;;;;;;;12.95;4.72;;;30.20;64.10;;;30.48;41.02;96619.78;5021369;28;20067;-43
2022/06/19 08:10:28;;;;;;;16.25;5.45;;;30.20;63.00;;;30.57;41.27;96626.72;5021375;28;20026;-41
2022/06/19 08:12:55;;;;;;;20.42;5.03;;;30.30;64.30;;;30.60;41.04;96620.88;5019417;28;20346;-41
2022/06/19 08:15:21;;;;;;;12.18;5.07;;;30.40;63.40;;;30.63;40.44;96621.31;5014653;28;20112;-42
2022/06/19 08:17:49;;;;;;;14.73;5.43;;;30.40;63.00;;;30.66;40.05;96606.47;5018171;28;20041;-41
2022/06/19 08:20:16;;;;;;;11.57;5.13;;;30.40;62.40;;;30.81;41.35;96611.75;5021555;28;20116;-42
2022/06/19 08:22:43;;;;;;;9.82;4.82;;;30.50;63.60;;;30.95;41.57;96608.06;5020326;28;20036;-41
2022/06/19 08:25:11;;;;;;;14.95;5.40;;;30.60;64.40;;;31.17;39.91;96611.47;5026782;28;20154;-42
2022/06/19 08:27:42;;;;;;;15.73;6.80;;;30.90;63.80;;;31.30;38.71;96617.97;5039732;28;20026;-39
2022/06/19 08:30:16;;;;;;;15.27;7.33;;;31.00;60.50;;;31.38;38.06;96617.78;5022722;28;20040;-42
2022/06/19 08:32:42;;;;;;;13.38;7.78;;;31.10;59.70;;;31.45;37.75;96613.19;5019234;28;20064;-42
2022/06/19 08:35:08;;;;;;;15.95;7.95;;;31.20;59.70;;;31.47;36.56;96608.38;5026261;28;20069;-44
2022/06/19 08:37:36;;;;;;;14.20;7.50;;;31.30;58.50;;;31.53;36.93;96610.31;5025566;28;20095;-42
2022/06/19 08:40:28;;;;;;;13.18;8.00;;;31.30;59.10;;;31.61;37.23;96601.06;5017220;28;20040;-43
2022/06/19 08:43:30;;;;;;;14.63;7.60;;;31.30;57.70;;;31.67;37.50;96583.03;5014715;28;20025;-42
2022/06/19 08:46:33;;;;;;;15.98;7.13;;;31.50;58.10;;;31.94;36.86;96600.22;5025986;28;20441;-41
2022/06/19 08:49:21;;;;;;;13.75;6.57;;;31.70;58.40;;;32.04;37.35;96627.94;5028018;28;20022;-42
2022/06/19 08:52:04;;;;;;;16.75;7.20;;;31.80;58.80;;;32.09;32.47;96595.41;5014424;28;20036;-42
2022/06/19 08:54:51;;;;;;;18.80;6.55;;;31.80;52.90;;;32.23;31.38;96618.06;5015801;28;20113;-41
2022/06/19 08:57:29;;;;;;;13.07;7.30;;;32.00;51.90;;;32.40;32.45;96621.16;5010526;28;20041;-41
2022/06/19 09:00:20;;;;;;;12.70;6.75;;;32.10;52.90;;;32.56;30.52;96613.56;5017995;28;20033;-42
2022/06/19 09:03:09;;;;;;;9.90;6.22;;;32.30;51.90;;;32.55;30.62;96623.63;5027354;28;20033;-41
2022/06/19 09:05:59;;;;;;;16.05;6.63;;;32.30;48.50;;;32.61;29.47;96616.47;5012041;28;20463;-41
2022/06/19 09:08:51;;;;;;;12.82;6.47;;;32.40;48.80;;;32.76;28.91;96622.53;5012149;28;20650;-42
2022/06/19 09:11:46;;;;;;;13.57;6.07;;;32.50;48.70;;;32.95;27.62;96622.66;5019538;28;20116;-42
2022/06/19 09:14:51;;;;;;;12.00;6.15;;;32.60;47.30;;;33.10;28.08;96631.41;5020534;28;20455;-41
2022/06/19 09:17:29;;;;;;;18.00;6.97;;;32.80;47.40;;;33.13;27.57;96631.00;5015662;28;20033;-41
2022/06/19 09:20:46;;;;;;;13.57;6.32;;;32.80;46.60;;;33.13;26.40;96635.63;5024544;28;20284;-41
2022/06/19 09:23:14;;;;;;;12.40;6.13;;;32.90;45.70;;;33.04;26.56;96624.06;4997204;28;20124;-42
2022/06/19 09:26:07;;;;;;;11.10;5.75;;;32.80;45.20;;;33.07;25.82;96627.19;5008875;28;20038;-41
2022/06/19 09:29:41;;;;;;;12.52;5.53;;;32.80;44.90;;;33.02;26.13;96634.38;5014458;28;20037;-42
2022/06/19 09:32:25;;;;;;;;;;;32.80;44.70;;;32.98;26.23;96630.41;5000411;28;20056;-42
2022/06/19 09:35:12;;;;;;;14.00;5.78;;;32.70;44.50;;;32.96;26.14;96625.16;5013784;28;19974;-43
2022/06/19 09:37:55;;;;;;;15.85;6.57;;;32.70;44.50;;;32.96;26.46;96627.91;5023501;28;20422;-42
2022/06/19 09:40:52;;;;;;;11.93;6.47;;;32.70;45.60;;;32.93;26.43;96622.84;5015083;28;20258;-44
2022/06/19 09:43:44;;;;;;;11.68;5.78;;;32.70;44.90;;;32.97;26.87;96618.66;5017140;28;20037;-40
2022/06/19 09:46:20;;;;;;;18.77;6.18;;;32.70;45.00;;;33.06;26.90;96627.44;5015130;28;20079;-39
2022/06/19 09:48:55;;;;;;;14.90;6.25;;;32.80;45.10;;;33.12;25.40;96623.81;5025188;22;20144;-46
2022/06/19 09:51:43;;;;;;;12.85;5.72;;;32.80;43.80;;;33.24;26.79;96616.66;5008417;28;20026;-46
2022/06/19 09:54:46;;;;;;;17.67;5.85;;;32.90;45.30;;;33.21;26.32;96614.34;5000171;28;20040;-49
2022/06/19 09:57:33;;;;;;;12.10;5.70;;;33.00;44.20;;;33.23;25.93;96609.50;5001214;28;20124;-46
2022/06/19 10:00:07;;;;;;;9.90;5.45;;;33.00;44.10;;;33.45;25.51;96599.06;4987777;28;20022;-45
2022/06/19 10:02:58;;;;;;;14.55;5.53;;;33.00;43.70;;;33.52;25.28;96607.19;4995668;28;20123;-47
2022/06/19 10:05:42;;;;;;;13.13;6.00;;;33.20;43.50;;;33.61;25.62;96605.88;5000407;28;20053;-48
2022/06/19 10:08:26;;;;;;;11.35;6.10;;;33.20;43.70;;;33.61;25.82;96613.22;4990588;28;20034;-46
2022/06/19 10:11:15;;;;;;;11.93;4.95;;;33.30;43.40;;;33.65;25.02;96611.75;4987168;28;20034;-47
2022/06/19 10:14:02;;;;;;;17.27;6.00;;;33.30;42.40;;;33.75;24.23;96605.81;4992096;28;20650;-48
2022/06/19 10:16:50;;;;;;;19.35;5.85;;;33.40;42.20;;;33.85;24.59;96603.41;5000428;28;20060;-47
2022/06/19 10:19:23;;;;;;;16.20;5.68;;;33.50;43.00;;;33.89;24.10;96601.88;4996703;28;20128;-51
2022/06/19 10:22:14;;;;;;;12.82;6.00;;;33.60;41.20;;;33.86;23.95;96607.78;4987663;28;20057;-50
2022/06/19 10:25:19;;;;;;;9.18;5.65;;;33.60;41.80;;;33.92;24.02;96612.38;5007207;28;20669;-47
2022/06/19 10:28:30;;;;;;;15.98;6.20;;;33.60;41.30;;;33.93;24.01;96597.63;5011655;28;20037;-47
2022/06/19 10:31:33;;;;;;;13.38;6.05;;;33.60;41.60;;;33.84;24.09;96594.34;4994107;28;20033;-48
2022/06/19 10:34:06;;;;;;;13.48;5.38;;;33.60;41.50;;;33.93;23.81;96591.34;4994001;28;20494;-47
2022/06/19 10:36:51;;;;;;;17.20;5.82;;;33.60;41.40;;;33.97;24.74;96590.69;4996005;28;20069;-49
2022/06/19 10:39:40;;;;;;;14.98;6.00;;;33.60;41.80;;;33.96;24.24;96582.69;4993966;28;20029;-47
2022/06/19 10:42:44;;;;;;;12.05;5.60;;;33.70;41.90;;;34.00;24.73;96583.91;4991381;28;20046;-47
2022/06/19 10:45:43;;;;;;;10.15;6.00;;;33.70;42.80;;;34.05;25.11;96587.63;4983568;28;20034;-50